Time;durP1;ratioP1;P1;durP2;ratioP2;P2;SDS_P1;SDS_P2;PMS_P1;PMS_P2;Temp;Humidity;BMP_temperature;BMP_pressure;BME280_temperature;BME280_humidity;BME280_pressure;Samples;Min_cycle;Max_cycle;Signal;HPM_P1;HPM_P2
2022/03/14 00:01:49;;;;;;;19.60;12.10;;;8.90;99.90;;;;;;5107174;27;20084;-78
2022/03/14 00:04:15;;;;;;;18.17;12.18;;;8.90;99.90;;;;;;5104491;28;20145;-77
2022/03/14 00:06:43;;;;;;;19.73;12.38;;;8.90;99.90;;;;;;5088723;27;20047;-79
2022/03/14 00:09:09;;;;;;;18.52;11.90;;;8.90;99.90;;;;;;5104821;27;20043;-75
2022/03/14 00:11:38;;;;;;;18.75;11.48;;;8.90;99.90;;;;;;5107455;27;20089;-77
2022/03/14 00:14:08;;;;;;;16.77;12.05;;;8.80;99.90;;;;;;5113083;27;20103;-77
2022/03/14 00:16:43;;;;;;;19.83;12.38;;;8.80;99.90;;;;;;5089308;28;20058;-78
2022/03/14 00:19:09;;;;;;;17.67;12.15;;;8.70;99.90;;;;;;5110826;27;20040;-77
2022/03/14 00:21:39;;;;;;;18.27;11.63;;;8.60;99.90;;;;;;5091832;28;20032;-80
2022/03/14 00:24:08;;;;;;;19.25;12.75;;;8.60;99.90;;;;;;5088139;27;20092;-78
2022/03/14 00:26:34;;;;;;;20.45;12.85;;;8.50;99.90;;;;;;5084176;28;20066;-79
2022/03/14 00:29:00;;;;;;;16.10;11.27;;;8.50;99.90;;;;;;5106504;27;20115;-76
2022/03/14 00:31:25;;;;;;;17.10;12.30;;;8.60;99.90;;;;;;5099255;28;20419;-76
2022/03/14 00:33:51;;;;;;;19.15;12.65;;;8.60;99.90;;;;;;5101570;27;20125;-76
2022/03/14 00:36:19;;;;;;;19.00;13.27;;;8.80;99.90;;;;;;5099926;27;20044;-76
2022/03/14 00:38:44;;;;;;;18.73;12.25;;;8.60;99.90;;;;;;5081620;28;20055;-78
2022/03/14 00:41:12;;;;;;;18.40;12.82;;;8.60;99.90;;;;;;5108937;27;20039;-79
2022/03/14 00:43:38;;;;;;;17.70;12.05;;;8.50;99.90;;;;;;5103293;27;20035;-80
2022/03/14 00:46:04;;;;;;;19.58;13.00;;;8.60;99.90;;;;;;5087481;28;20058;-76
2022/03/14 00:48:32;;;;;;;17.90;12.90;;;8.60;99.90;;;;;;5100429;27;20035;-76
2022/03/14 00:50:58;;;;;;;18.05;12.48;;;8.50;99.90;;;;;;5104479;27;20046;-76
2022/03/14 00:53:24;;;;;;;18.00;12.82;;;8.60;99.90;;;;;;5103303;27;20139;-79
2022/03/14 00:55:49;;;;;;;19.65;13.02;;;8.50;99.90;;;;;;5093591;28;20473;-78
2022/03/14 00:58:16;;;;;;;20.42;12.63;;;8.60;99.90;;;;;;5098711;27;20044;-78
2022/03/14 01:00:42;;;;;;;19.27;12.68;;;8.60;99.90;;;;;;5090514;28;20039;-78
2022/03/14 01:03:08;;;;;;;16.95;12.60;;;8.70;99.90;;;;;;5099087;27;20097;-78
2022/03/14 01:05:34;;;;;;;18.40;12.93;;;8.60;99.90;;;;;;5106849;28;20071;-76
2022/03/14 01:07:59;;;;;;;18.48;12.65;;;8.70;99.90;;;;;;5092866;28;20105;-77
2022/03/14 01:10:25;;;;;;;19.75;12.60;;;8.60;99.90;;;;;;5110049;28;20049;-76
2022/03/14 01:12:51;;;;;;;24.92;12.60;;;8.60;99.90;;;;;;5104823;28;20027;-80
2022/03/14 01:15:17;;;;;;;19.10;12.27;;;8.70;99.90;;;;;;5105870;28;20505;-81
2022/03/14 01:17:44;;;;;;;17.10;12.25;;;8.70;99.90;;;;;;5107986;28;20044;-79
2022/03/14 01:20:10;;;;;;;17.13;12.43;;;8.90;99.90;;;;;;5087835;28;20058;-80
2022/03/14 01:22:38;;;;;;;17.50;12.38;;;8.70;99.90;;;;;;5085762;28;20063;-76
2022/03/14 01:25:04;;;;;;;16.83;12.75;;;8.70;99.90;;;;;;5109455;28;20042;-80
2022/03/14 01:27:30;;;;;;;15.73;11.30;;;8.80;99.90;;;;;;5105648;28;20449;-81
2022/03/14 01:29:56;;;;;;;18.92;12.25;;;8.80;99.90;;;;;;5098409;28;20039;-77
2022/03/14 01:32:22;;;;;;;18.67;12.10;;;8.80;99.90;;;;;;5105746;28;20040;-79
2022/03/14 01:34:48;;;;;;;16.15;12.25;;;8.80;99.90;;;;;;5107048;28;20069;-78
2022/03/14 01:37:18;;;;;;;15.15;11.82;;;8.80;99.90;;;;;;5103218;28;20031;-78
2022/03/14 01:39:44;;;;;;;18.10;12.20;;;8.80;99.90;;;;;;5097156;28;20115;-79
2022/03/14 01:42:18;;;;;;;18.92;11.30;;;8.80;99.90;;;;;;5101202;28;20082;-81
2022/03/14 01:44:45;;;;;;;16.70;11.97;;;8.80;99.90;;;;;;5090807;28;20046;-78
2022/03/14 01:47:11;;;;;;;17.17;11.88;;;8.70;99.90;;;;;;5096166;28;20156;-78
2022/03/14 01:49:37;;;;;;;15.73;11.68;;;8.80;99.90;;;;;;5103058;27;20484;-79
2022/03/14 01:52:05;;;;;;;18.15;12.25;;;8.80;99.90;;;;;;5109465;27;20071;-80
2022/03/14 01:54:31;;;;;;;18.65;12.02;;;8.70;99.90;;;;;;5110235;27;20043;-78
2022/03/14 01:56:57;;;;;;;18.90;11.88;;;8.70;99.90;;;;;;5106608;27;20043;-77
2022/03/14 01:59:23;;;;;;;15.77;11.57;;;8.60;99.90;;;;;;5107199;27;20371;-79
2022/03/14 02:01:49;;;;;;;21.40;12.63;;;8.60;99.90;;;;;;5100581;28;20051;-80
2022/03/14 02:04:18;;;;;;;16.70;12.07;;;8.70;99.90;;;;;;5090031;28;20582;-79
2022/03/14 02:06:46;;;;;;;16.38;12.05;;;8.60;99.90;;;;;;5109390;27;20136;-77
2022/03/14 02:09:12;;;;;;;16.52;12.40;;;8.60;99.90;;;;;;5111139;27;20043;-81
2022/03/14 02:11:38;;;;;;;16.23;12.15;;;8.60;99.90;;;;;;5109840;27;20057;-81
2022/03/14 02:14:06;;;;;;;17.15;12.80;;;8.50;99.90;;;;;;5090232;28;20412;-81
2022/03/14 02:16:32;;;;;;;17.38;11.82;;;8.50;99.90;;;;;;5090562;27;20039;-78
2022/03/14 02:18:57;;;;;;;15.93;11.25;;;8.70;99.90;;;;;;5105980;27;20397;-78
2022/03/14 02:21:23;;;;;;;16.38;11.25;;;8.40;99.90;;;;;;5093811;28;20051;-78
2022/03/14 02:23:49;;;;;;;17.23;11.77;;;8.50;99.90;;;;;;5109901;27;20031;-77
2022/03/14 02:26:15;;;;;;;16.17;11.82;;;8.50;99.90;;;;;;5107342;28;20100;-78
2022/03/14 02:28:40;;;;;;;18.90;11.57;;;8.50;99.90;;;;;;5109019;28;20040;-76
2022/03/14 02:31:06;;;;;;;15.25;11.52;;;8.50;99.90;;;;;;5109607;27;20036;-75
2022/03/14 02:33:32;;;;;;;16.00;11.73;;;8.60;99.90;;;;;;5107714;27;20047;-75
2022/03/14 02:35:58;;;;;;;16.30;11.68;;;8.60;99.90;;;;;;5108662;28;20210;-77
2022/03/14 02:38:27;;;;;;;16.42;11.85;;;8.60;99.90;;;;;;5109818;27;20039;-77
2022/03/14 02:40:52;;;;;;;18.30;11.68;;;8.60;99.90;;;;;;5109663;27;20042;-78
2022/03/14 02:43:24;;;;;;;21.20;11.93;;;8.70;99.90;;;;;;5107467;27;20403;-77
2022/03/14 02:45:51;;;;;;;15.10;11.40;;;8.70;99.90;;;;;;5090097;27;20071;-76
2022/03/14 02:48:17;;;;;;;20.05;11.48;;;8.80;99.90;;;;;;5083735;28;20077;-77
2022/03/14 02:50:43;;;;;;;13.82;11.05;;;8.70;99.90;;;;;;5092093;28;20035;-75
2022/03/14 02:53:13;;;;;;;16.98;11.13;;;8.70;99.90;;;;;;5108068;27;20039;-78
2022/03/14 02:55:40;;;;;;;14.98;11.13;;;8.70;99.90;;;;;;5109850;27;20040;-75
2022/03/14 02:58:06;;;;;;;13.70;10.98;;;8.80;99.90;;;;;;5107405;27;20039;-76
2022/03/14 03:00:35;;;;;;;16.25;11.07;;;8.70;99.90;;;;;;5107406;27;20092;-77
2022/03/14 03:03:04;;;;;;;17.05;10.45;;;8.70;99.90;;;;;;5108076;27;20059;-79
2022/03/14 03:05:31;;;;;;;13.73;10.25;;;8.70;99.90;;;;;;5110718;27;20023;-76
2022/03/14 03:08:00;;;;;;;14.35;10.98;;;8.80;99.90;;;;;;5103842;27;20038;-77
2022/03/14 03:10:28;;;;;;;14.13;10.43;;;8.80;99.90;;;;;;5093210;28;20498;-77
2022/03/14 03:12:54;;;;;;;12.13;10.45;;;8.80;99.90;;;;;;5106726;27;20118;-78
2022/03/14 03:15:20;;;;;;;14.60;10.10;;;8.80;99.90;;;;;;5107025;28;20126;-77
2022/03/14 03:17:46;;;;;;;17.33;10.05;;;8.70;99.90;;;;;;5107706;27;20127;-77
2022/03/14 03:20:12;;;;;;;13.88;10.35;;;8.80;99.90;;;;;;5089745;28;20044;-78
2022/03/14 03:22:39;;;;;;;12.13;9.73;;;8.80;99.90;;;;;;5108616;27;20043;-76
2022/03/14 03:25:08;;;;;;;16.23;10.45;;;8.80;99.90;;;;;;5106373;27;20031;-79
2022/03/14 03:27:34;;;;;;;13.63;9.98;;;8.80;99.90;;;;;;5088835;28;20570;-76
2022/03/14 03:30:00;;;;;;;12.63;9.73;;;8.80;99.90;;;;;;5107086;27;20040;-79
2022/03/14 03:32:26;;;;;;;12.70;9.77;;;8.90;99.90;;;;;;5108287;28;20084;-77
2022/03/14 03:34:52;;;;;;;12.20;9.57;;;8.80;99.90;;;;;;5092035;28;20047;-78
2022/03/14 03:37:18;;;;;;;14.57;9.25;;;8.80;99.90;;;;;;5093673;28;20034;-77
2022/03/14 03:39:44;;;;;;;15.18;9.52;;;8.80;99.90;;;;;;5110109;27;20032;-78
2022/03/14 03:42:10;;;;;;;11.40;9.40;;;8.80;99.90;;;;;;5088903;28;20035;-79
2022/03/14 03:44:36;;;;;;;16.13;9.85;;;8.80;99.90;;;;;;5106914;27;20054;-77
2022/03/14 03:47:03;;;;;;;13.27;9.98;;;8.70;99.90;;;;;;5090921;28;20461;-78
2022/03/14 03:49:29;;;;;;;11.25;9.30;;;8.80;99.90;;;;;;5091713;28;20032;-77
2022/03/14 03:51:55;;;;;;;12.80;9.07;;;8.70;99.90;;;;;;5108942;27;20053;-76
2022/03/14 03:54:21;;;;;;;11.25;9.07;;;8.70;99.90;;;;;;5109674;27;20055;-79
2022/03/14 03:56:47;;;;;;;13.30;8.95;;;8.70;99.90;;;;;;5109092;28;20126;-76
2022/03/14 03:59:13;;;;;;;13.23;8.77;;;8.80;99.90;;;;;;5107505;27;20039;-79
2022/03/14 04:01:39;;;;;;;10.25;8.43;;;8.80;99.90;;;;;;5106848;27;20097;-78
2022/03/14 04:04:05;;;;;;;12.52;8.52;;;8.80;99.90;;;;;;5107270;28;20043;-79
2022/03/14 04:06:31;;;;;;;10.23;7.72;;;8.80;99.90;;;;;;5088829;27;20051;-80
2022/03/14 04:08:58;;;;;;;13.70;7.53;;;8.80;99.90;;;;;;5089666;28;20044;-78
2022/03/14 04:11:24;;;;;;;9.18;7.65;;;8.80;99.90;;;;;;5110127;27;20050;-77
2022/03/14 04:13:51;;;;;;;9.23;7.38;;;8.80;99.90;;;;;;5105497;27;20035;-78
2022/03/14 04:16:18;;;;;;;9.75;7.68;;;8.90;99.90;;;;;;5104682;27;20046;-76
2022/03/14 04:18:47;;;;;;;11.10;7.25;;;8.90;99.90;;;;;;5109759;27;20753;-77
2022/03/14 04:21:14;;;;;;;10.40;7.47;;;8.90;99.90;;;;;;5105910;28;20058;-77
2022/03/14 04:23:40;;;;;;;12.55;7.38;;;8.90;99.90;;;;;;5104330;28;20063;-74
2022/03/14 04:26:06;;;;;;;9.65;6.85;;;8.90;99.90;;;;;;5092202;28;20353;-76
2022/03/14 04:28:31;;;;;;;9.23;7.18;;;8.90;99.90;;;;;;5080671;28;20044;-79
2022/03/14 04:30:58;;;;;;;10.02;6.40;;;8.90;99.90;;;;;;5103962;27;20119;-78
2022/03/14 04:33:24;;;;;;;10.20;6.30;;;8.90;99.90;;;;;;5090170;28;20052;-79
2022/03/14 04:35:50;;;;;;;7.35;5.85;;;8.90;99.90;;;;;;5107638;27;20035;-80
2022/03/14 04:38:18;;;;;;;10.38;6.00;;;9.00;99.90;;;;;;5091202;27;20070;-77
2022/03/14 04:40:43;;;;;;;6.53;5.63;;;9.00;99.90;;;;;;5091478;28;20036;-76
2022/03/14 04:43:09;;;;;;;7.45;5.82;;;9.00;99.90;;;;;;5082854;28;20055;-79
2022/03/14 04:45:36;;;;;;;8.13;5.90;;;9.00;99.90;;;;;;5083231;28;20044;-78
2022/03/14 04:48:03;;;;;;;9.20;6.07;;;9.10;99.90;;;;;;5093418;28;20051;-77
2022/03/14 04:50:29;;;;;;;9.90;5.72;;;9.00;99.90;;;;;;5097744;28;20065;-77
2022/03/14 04:52:55;;;;;;;6.40;5.20;;;9.00;99.90;;;;;;5100116;28;20067;-77
2022/03/14 04:55:21;;;;;;;6.65;5.45;;;9.00;99.90;;;;;;5103892;28;20595;-75
2022/03/14 04:57:47;;;;;;;6.57;5.88;;;9.00;99.90;;;;;;5107677;28;20544;-77
2022/03/14 05:00:13;;;;;;;6.57;5.22;;;9.00;99.90;;;;;;5104012;28;20047;-81
2022/03/14 05:02:38;;;;;;;8.32;5.20;;;9.00;99.90;;;;;;5108563;27;20393;-78
2022/03/14 05:05:05;;;;;;;7.78;5.40;;;9.00;99.90;;;;;;5090962;28;20035;-76
2022/03/14 05:07:30;;;;;;;6.85;5.00;;;9.00;99.90;;;;;;5105951;28;20059;-77
2022/03/14 05:09:56;;;;;;;7.10;4.80;;;8.90;99.90;;;;;;5084119;28;20474;-75
2022/03/14 05:12:22;;;;;;;7.68;4.90;;;8.90;99.90;;;;;;5097147;28;20354;-76
2022/03/14 05:14:51;;;;;;;6.05;4.72;;;8.90;99.90;;;;;;5098958;27;20521;-77
2022/03/14 05:17:17;;;;;;;6.65;4.80;;;8.90;99.90;;;;;;5084137;28;20063;-77
2022/03/14 05:19:43;;;;;;;5.88;4.45;;;8.90;99.90;;;;;;5099867;28;20123;-80
2022/03/14 05:22:08;;;;;;;6.57;4.72;;;8.90;99.90;;;;;;5081714;28;20612;-78
2022/03/14 05:24:34;;;;;;;5.50;4.80;;;8.90;99.90;;;;;;5082152;28;20066;-77
2022/03/14 05:26:59;;;;;;;4.88;4.15;;;9.00;99.90;;;;;;5117886;27;20028;-79
2022/03/14 05:29:25;;;;;;;6.03;4.55;;;9.10;99.90;;;;;;5105640;28;20101;-77
2022/03/14 05:31:51;;;;;;;4.68;4.03;;;9.00;99.90;;;;;;5099184;28;20118;-77
2022/03/14 05:34:16;;;;;;;5.10;4.55;;;9.00;99.90;;;;;;5101608;28;20204;-77
2022/03/14 05:36:42;;;;;;;6.90;4.75;;;9.10;99.90;;;;;;5111677;28;20040;-80
2022/03/14 05:39:09;;;;;;;6.95;3.92;;;9.10;99.90;;;;;;5097516;28;20572;-78
2022/03/14 05:41:34;;;;;;;4.70;4.20;;;9.00;99.90;;;;;;5091955;28;20094;-81
2022/03/14 05:44:00;;;;;;;6.28;4.50;;;9.10;99.90;;;;;;5101406;28;20067;-77
2022/03/14 05:46:26;;;;;;;5.30;4.07;;;9.20;99.90;;;;;;5087198;28;20086;-76
2022/03/14 05:48:51;;;;;;;10.25;4.30;;;9.20;99.90;;;;;;5097902;28;20468;-81
2022/03/14 05:51:17;;;;;;;8.68;4.10;;;9.20;99.90;;;;;;5101519;28;20043;-78
2022/03/14 05:53:43;;;;;;;5.68;4.50;;;9.10;99.90;;;;;;5086444;28;20093;-81
2022/03/14 05:56:08;;;;;;;4.75;4.15;;;9.10;99.90;;;;;;5083961;28;20475;-81
2022/03/14 05:58:34;;;;;;;4.88;3.58;;;9.00;99.90;;;;;;5096012;28;20046;-79
2022/03/14 06:00:59;;;;;;;5.78;3.92;;;9.50;99.90;;;;;;5084179;28;20044;-77
2022/03/14 06:03:25;;;;;;;5.18;3.90;;;9.30;99.90;;;;;;5099433;28;20384;-78
2022/03/14 06:05:51;;;;;;;5.00;4.20;;;9.70;99.90;;;;;;5106949;28;20076;-78
2022/03/14 06:08:18;;;;;;;4.95;4.10;;;9.50;99.90;;;;;;5104146;28;20432;-78
2022/03/14 06:10:45;;;;;;;6.93;4.28;;;9.40;99.90;;;;;;5106082;28;20084;-80
2022/03/14 06:13:15;;;;;;;5.78;4.70;;;9.30;99.90;;;;;;5106329;28;20056;-78
2022/03/14 06:15:42;;;;;;;4.50;4.10;;;9.20;99.90;;;;;;5105584;28;20202;-79
2022/03/14 06:18:08;;;;;;;7.07;4.40;;;9.20;99.90;;;;;;5103248;28;20087;-78
2022/03/14 06:20:34;;;;;;;5.00;4.28;;;9.00;99.90;;;;;;5081837;28;20439;-77
2022/03/14 06:23:00;;;;;;;11.20;4.30;;;9.00;99.90;;;;;;5109745;28;20036;-78
2022/03/14 06:25:26;;;;;;;4.88;4.07;;;9.00;99.90;;;;;;5093582;28;20467;-80
2022/03/14 06:27:52;;;;;;;4.97;4.47;;;8.90;99.90;;;;;;5114378;27;20035;-78
2022/03/14 06:30:19;;;;;;;4.82;4.05;;;9.00;99.90;;;;;;5114471;27;20543;-78
2022/03/14 06:32:47;;;;;;;4.25;3.83;;;8.90;99.90;;;;;;5112530;27;20414;-80
2022/03/14 06:35:14;;;;;;;6.90;4.78;;;8.90;99.90;;;;;;5126112;27;20042;-80
2022/03/14 06:37:40;;;;;;;7.50;4.32;;;8.90;99.90;;;;;;5114775;27;20406;-80
2022/03/14 06:40:06;;;;;;;6.32;4.05;;;8.90;99.90;;;;;;5101971;28;20051;-81
2022/03/14 06:42:32;;;;;;;7.93;4.22;;;8.90;99.90;;;;;;5103458;27;20047;-79
2022/03/14 06:45:02;;;;;;;5.55;4.30;;;8.90;99.90;;;;;;5100940;28;20118;-80
2022/03/14 06:47:28;;;;;;;5.45;3.97;;;8.90;99.90;;;;;;5094850;28;20087;-80
2022/03/14 06:49:54;;;;;;;6.15;4.20;;;8.90;99.90;;;;;;5110516;27;20032;-77
2022/03/14 06:52:20;;;;;;;5.97;4.28;;;8.90;99.90;;;;;;5111303;27;20040;-78
2022/03/14 06:54:46;;;;;;;7.57;4.55;;;8.90;99.90;;;;;;5094334;28;20135;-78
2022/03/14 06:57:12;;;;;;;6.28;4.10;;;8.90;99.90;;;;;;5110557;27;20118;-79
2022/03/14 06:59:38;;;;;;;8.38;4.75;;;9.00;99.90;;;;;;5101562;27;20504;-81
2022/03/14 07:02:04;;;;;;;4.78;4.20;;;9.00;99.90;;;;;;5115171;27;20041;-78
2022/03/14 07:04:30;;;;;;;7.28;4.55;;;9.10;99.90;;;;;;5118373;27;20047;-78
2022/03/14 07:06:56;;;;;;;4.68;4.18;;;9.10;99.90;;;;;;5098797;28;20055;-79
2022/03/14 07:09:27;;;;;;;5.20;4.40;;;9.10;99.90;;;;;;5110099;27;20058;-82
2022/03/14 07:11:52;;;;;;;5.13;4.20;;;9.10;99.90;;;;;;5095956;28;20111;-79
2022/03/14 07:14:19;;;;;;;6.97;4.63;;;9.00;99.90;;;;;;5097374;27;20130;-80
2022/03/14 07:16:45;;;;;;;5.00;4.45;;;9.20;99.90;;;;;;5104857;28;20509;-79
2022/03/14 07:19:11;;;;;;;5.85;4.70;;;9.10;99.90;;;;;;5099777;28;20039;-80
2022/03/14 07:21:36;;;;;;;7.20;4.28;;;9.20;99.90;;;;;;5121611;27;20088;-81
2022/03/14 07:24:02;;;;;;;6.43;4.80;;;9.20;99.90;;;;;;5132812;27;20053;-78
2022/03/14 07:26:28;;;;;;;6.13;5.00;;;9.10;99.90;;;;;;5110993;28;20054;-80
2022/03/14 07:28:54;;;;;;;5.18;4.43;;;9.10;99.90;;;;;;5110699;27;20032;-77
2022/03/14 07:31:23;;;;;;;7.57;5.13;;;9.10;99.90;;;;;;5099735;28;20226;-84
2022/03/14 07:33:49;;;;;;;8.90;5.18;;;9.20;99.90;;;;;;5102514;28;20374;-79
2022/03/14 07:36:15;;;;;;;6.95;5.10;;;9.10;99.90;;;;;;5113645;27;20383;-80
2022/03/14 07:38:41;;;;;;;7.43;5.30;;;9.20;99.90;;;;;;5121803;27;20092;-79
2022/03/14 07:41:10;;;;;;;10.52;5.38;;;9.40;99.90;;;;;;5099873;28;20046;-80
2022/03/14 07:43:37;;;;;;;6.97;5.70;;;9.30;99.90;;;;;;5125013;27;20153;-79
2022/03/14 07:46:03;;;;;;;6.80;5.30;;;9.20;99.90;;;;;;5116742;27;20036;-82
2022/03/14 07:48:29;;;;;;;7.03;4.88;;;9.20;99.90;;;;;;5112234;27;20335;-81
2022/03/14 07:50:58;;;;;;;6.35;5.25;;;9.30;99.90;;;;;;5112120;27;20036;-83
2022/03/14 07:53:24;;;;;;;6.03;5.25;;;9.30;99.90;;;;;;5089701;28;20062;-80
2022/03/14 07:55:49;;;;;;;6.00;5.40;;;9.30;99.90;;;;;;5093728;28;20047;-80
2022/03/14 07:58:15;;;;;;;6.60;5.07;;;9.30;99.90;;;;;;5111359;28;20047;-78
2022/03/14 08:00:41;;;;;;;7.10;5.50;;;9.30;99.90;;;;;;5093772;28;20398;-81
2022/03/14 08:03:07;;;;;;;7.72;5.75;;;9.40;99.90;;;;;;5102019;27;20031;-81
2022/03/14 08:05:33;;;;;;;6.10;5.43;;;9.30;99.90;;;;;;5092961;27;20339;-80
2022/03/14 08:08:00;;;;;;;6.20;5.05;;;9.40;99.90;;;;;;5110662;28;20115;-81
2022/03/14 08:10:26;;;;;;;7.60;5.10;;;9.50;99.90;;;;;;5111347;28;20165;-85
2022/03/14 08:12:56;;;;;;;6.47;5.38;;;9.50;99.90;;;;;;5093636;28;20051;-80
2022/03/14 08:15:30;;;;;;;5.82;4.95;;;9.50;99.90;;;;;;5109935;28;20071;-81
2022/03/14 08:17:58;;;;;;;6.47;5.45;;;9.60;99.90;;;;;;5111023;28;20062;-79
2022/03/14 08:20:27;;;;;;;6.03;5.32;;;9.70;99.90;;;;;;5092604;28;20040;-80
2022/03/14 08:22:58;;;;;;;5.82;5.22;;;9.60;99.90;;;;;;5103709;28;20514;-82
2022/03/14 08:25:24;;;;;;;6.28;5.53;;;9.70;99.90;;;;;;5093409;28;20040;-79
2022/03/14 08:27:51;;;;;;;7.53;5.57;;;9.60;99.90;;;;;;5110409;28;20046;-81
2022/03/14 08:30:18;;;;;;;6.15;5.55;;;9.70;99.90;;;;;;5111464;28;20373;-82
2022/03/14 08:32:44;;;;;;;6.20;5.20;;;9.70;99.90;;;;;;5111182;28;20400;-81
2022/03/14 08:35:11;;;;;;;6.45;5.65;;;9.70;99.90;;;;;;5111263;28;20085;-83
2022/03/14 08:37:41;;;;;;;9.02;6.30;;;9.70;99.90;;;;;;5092033;28;20043;-82
2022/03/14 08:40:09;;;;;;;11.70;4.95;;;9.60;99.90;;;;;;5113617;27;20039;-84
2022/03/14 08:42:39;;;;;;;6.53;5.82;;;10.10;99.90;;;;;;5089816;28;20047;-85
2022/03/14 08:45:06;;;;;;;5.65;5.05;;;10.00;99.90;;;;;;5092144;27;20096;-83
2022/03/14 08:47:33;;;;;;;6.22;5.53;;;10.00;99.90;;;;;;5093039;27;20765;-78
2022/03/14 08:49:59;;;;;;;7.80;5.97;;;9.90;99.90;;;;;;5107972;28;20046;-77
2022/03/14 08:52:25;;;;;;;7.57;6.20;;;9.90;99.90;;;;;;5109071;28;20054;-76
2022/03/14 08:54:50;;;;;;;7.35;5.80;;;9.90;99.90;;;;;;5096111;28;20422;-76
2022/03/14 08:57:16;;;;;;;7.40;5.68;;;9.90;99.90;;;;;;5092085;28;20171;-76
2022/03/14 08:59:44;;;;;;;7.40;6.32;;;9.80;99.90;;;;;;5079984;28;20418;-78
2022/03/14 09:02:10;;;;;;;6.43;5.75;;;9.80;99.90;;;;;;5099954;28;20061;-76
2022/03/14 09:04:36;;;;;;;9.32;6.50;;;9.90;99.90;;;;;;5096068;28;20215;-76
2022/03/14 09:07:02;;;;;;;6.80;5.60;;;9.90;99.90;;;;;;5099461;28;20043;-80
2022/03/14 09:09:28;;;;;;;7.10;6.10;;;10.00;99.90;;;;;;5105126;28;20039;-80
2022/03/14 09:11:54;;;;;;;8.32;6.28;;;10.00;99.90;;;;;;5118205;27;20043;-79
2022/03/14 09:14:20;;;;;;;6.88;6.18;;;10.00;99.90;;;;;;5100563;28;20464;-80
2022/03/14 09:16:48;;;;;;;7.55;6.75;;;10.00;99.90;;;;;;5112760;28;20048;-79
2022/03/14 09:19:14;;;;;;;5.60;2.58;;;10.00;99.90;;;;;;5097323;28;20129;-77
2022/03/14 09:21:40;;;;;;;8.57;4.90;;;10.60;99.90;;;;;;5110337;28;20039;-79
2022/03/14 09:24:07;;;;;;;10.02;3.28;;;11.00;99.90;;;;;;5105371;28;20052;-79
2022/03/14 09:26:37;;;;;;;6.60;5.70;;;11.00;99.90;;;;;;5095901;28;20157;-85
2022/03/14 09:29:04;;;;;;;7.93;6.30;;;11.00;99.90;;;;;;5109450;28;20047;-78
2022/03/14 09:31:30;;;;;;;8.48;6.20;;;10.70;99.90;;;;;;5111934;28;20052;-79
2022/03/14 09:33:56;;;;;;;10.02;6.78;;;10.60;99.90;;;;;;5109422;28;20063;-81
2022/03/14 09:36:22;;;;;;;8.40;6.97;;;10.40;99.90;;;;;;5096317;28;20047;-80
2022/03/14 09:38:48;;;;;;;8.50;6.95;;;10.60;99.90;;;;;;5094784;28;20047;-82
2022/03/14 09:41:19;;;;;;;8.52;7.50;;;10.40;99.90;;;;;;5086362;28;20059;-82
2022/03/14 09:43:46;;;;;;;9.98;8.00;;;10.40;99.90;;;;;;5109983;28;20092;-78
2022/03/14 09:46:14;;;;;;;10.27;7.00;;;10.30;99.90;;;;;;5123038;27;20052;-81
2022/03/14 09:48:48;;;;;;;8.07;7.28;;;10.20;99.90;;;;;;5098010;28;20047;-79
2022/03/14 09:51:17;;;;;;;8.57;7.67;;;10.10;99.90;;;;;;5117857;28;20051;-80
2022/03/14 09:53:44;;;;;;;11.73;7.93;;;10.10;99.90;;;;;;5095756;28;20048;-77
2022/03/14 09:56:10;;;;;;;10.20;8.57;;;10.00;99.90;;;;;;5093676;28;20075;-76
2022/03/14 09:58:36;;;;;;;11.45;9.02;;;9.90;99.90;;;;;;5110648;28;20446;-76
2022/03/14 10:01:03;;;;;;;12.35;9.65;;;9.90;99.90;;;;;;5090771;28;20055;-76
2022/03/14 10:03:29;;;;;;;12.38;10.38;;;9.80;99.90;;;;;;5110114;28;20047;-78
2022/03/14 10:05:55;;;;;;;14.63;11.75;;;9.80;99.90;;;;;;5090477;28;20048;-77
2022/03/14 10:08:22;;;;;;;18.35;14.00;;;9.70;99.90;;;;;;5115900;28;20040;-80
2022/03/14 10:10:48;;;;;;;21.05;15.77;;;9.60;99.90;;;;;;5109549;28;20036;-77
2022/03/14 10:13:16;;;;;;;24.30;17.90;;;9.60;99.90;;;;;;5112867;27;20487;-80
2022/03/14 10:15:42;;;;;;;23.55;17.40;;;9.60;99.90;;;;;;5106882;27;20051;-78
2022/03/14 10:18:10;;;;;;;25.08;19.10;;;9.50;99.90;;;;;;5116395;27;20055;-77
2022/03/14 10:20:36;;;;;;;23.67;18.15;;;9.40;99.90;;;;;;5124846;27;20055;-79
2022/03/14 10:23:03;;;;;;;27.63;20.08;;;9.50;99.90;;;;;;5102518;28;20127;-77
2022/03/14 10:25:30;;;;;;;24.50;18.20;;;9.50;99.90;;;;;;5094989;28;20048;-79
2022/03/14 10:28:00;;;;;;;24.67;18.58;;;9.50;99.90;;;;;;5110270;27;20126;-75
2022/03/14 10:30:33;;;;;;;21.13;16.85;;;9.50;99.90;;;;;;5112169;27;20043;-78
2022/03/14 10:33:09;;;;;;;24.15;17.48;;;9.40;99.90;;;;;;5096555;28;20035;-78
2022/03/14 10:35:36;;;;;;;25.95;16.20;;;9.50;99.90;;;;;;5096484;28;20046;-77
2022/03/14 10:38:06;;;;;;;25.40;14.48;;;9.60;99.90;;;;;;5113394;28;20399;-78
2022/03/14 10:40:45;;;;;;;19.17;12.82;;;9.70;99.90;;;;;;5112608;28;20043;-81
2022/03/14 10:43:27;;;;;;;21.48;12.32;;;9.70;99.90;;;;;;5113325;28;20101;-79
2022/03/14 10:45:56;;;;;;;20.15;11.50;;;9.70;99.90;;;;;;5112464;28;20035;-80
2022/03/14 10:48:43;;;;;;;25.15;12.38;;;9.80;99.90;;;;;;5114381;28;20120;-78
2022/03/14 10:51:13;;;;;;;21.83;11.27;;;9.70;99.90;;;;;;5112599;28;20510;-79
2022/03/14 10:53:45;;;;;;;21.70;11.90;;;9.70;99.90;;;;;;5114495;27;20096;-79
2022/03/14 10:56:11;;;;;;;26.38;11.65;;;9.70;99.90;;;;;;5113245;28;20394;-82
2022/03/14 10:58:38;;;;;;;25.50;11.18;;;9.70;99.90;;;;;;5096340;28;20414;-78
2022/03/14 11:01:06;;;;;;;24.90;11.98;;;9.70;99.90;;;;;;5112030;28;20143;-81
2022/03/14 11:03:39;;;;;;;22.85;10.80;;;9.80;99.90;;;;;;5112259;28;20094;-79
2022/03/14 11:06:10;;;;;;;22.85;10.05;;;9.70;99.90;;;;;;5095493;28;20051;-77
2022/03/14 11:08:42;;;;;;;23.05;10.20;;;9.70;99.90;;;;;;5104794;28;20122;-78
2022/03/14 11:11:09;;;;;;;29.80;10.93;;;9.70;99.90;;;;;;5075126;28;20470;-81
2022/03/14 11:13:42;;;;;;;23.50;11.38;;;9.90;99.90;;;;;;5074727;28;20047;-79
2022/03/14 11:16:18;;;;;;;20.27;9.50;;;9.70;99.90;;;;;;5074310;28;20040;-77
2022/03/14 11:18:45;;;;;;;22.80;10.43;;;9.80;99.90;;;;;;5097547;28;20136;-78
2022/03/14 11:21:13;;;;;;;21.08;9.38;;;9.80;99.90;;;;;;5095586;28;20047;-83
2022/03/14 11:23:42;;;;;;;22.25;10.43;;;9.90;99.90;;;;;;5113528;28;20537;-81
2022/03/14 11:26:13;;;;;;;27.17;10.88;;;9.90;99.90;;;;;;5095373;28;20051;-80
2022/03/14 11:28:41;;;;;;;22.55;11.50;;;10.00;99.90;;;;;;5113502;28;20390;-80
2022/03/14 11:31:07;;;;;;;24.90;10.73;;;10.00;99.90;;;;;;5094455;28;20043;-80
2022/03/14 11:33:35;;;;;;;26.67;10.90;;;9.90;99.90;;;;;;5112360;28;20063;-78
2022/03/14 11:36:03;;;;;;;24.83;11.25;;;9.90;99.90;;;;;;5112251;28;20045;-79
2022/03/14 11:38:30;;;;;;;19.63;10.05;;;9.90;99.90;;;;;;5095260;28;20057;-77
2022/03/14 11:40:57;;;;;;;23.52;11.70;;;9.90;99.90;;;;;;5111653;28;20079;-78
2022/03/14 11:43:23;;;;;;;23.80;10.32;;;10.00;99.90;;;;;;5111966;28;20042;-80
2022/03/14 11:45:52;;;;;;;21.92;10.38;;;9.90;99.90;;;;;;5110724;28;20043;-78
2022/03/14 11:48:19;;;;;;;21.73;9.77;;;10.00;99.90;;;;;;5111999;28;20046;-77
2022/03/14 11:50:57;;;;;;;21.00;8.93;;;10.10;99.90;;;;;;5101670;28;20040;-80
2022/03/14 11:53:28;;;;;;;18.83;7.20;;;10.20;99.90;;;;;;5091370;28;20104;-81
2022/03/14 11:55:57;;;;;;;21.92;7.18;;;10.20;99.90;;;;;;5074584;28;20040;-79
2022/03/14 11:58:40;;;;;;;13.90;6.30;;;10.20;99.90;;;;;;5074371;28;20048;-77
2022/03/14 12:01:16;;;;;;;17.33;7.15;;;10.30;99.90;;;;;;5090284;28;20120;-78
2022/03/14 12:04:03;;;;;;;16.00;7.38;;;10.20;99.90;;;;;;5091075;28;20048;-80
2022/03/14 12:06:47;;;;;;;18.33;7.72;;;10.20;99.90;;;;;;5090459;28;20063;-78
2022/03/14 12:09:25;;;;;;;20.02;8.32;;;10.20;99.90;;;;;;5091393;28;20441;-79
2022/03/14 12:11:53;;;;;;;19.48;8.85;;;10.10;99.90;;;;;;5091011;28;20040;-82
2022/03/14 12:14:42;;;;;;;19.52;8.38;;;10.10;99.90;;;;;;5090804;28;20117;-77
2022/03/14 12:17:14;;;;;;;20.95;9.07;;;10.10;99.90;;;;;;5090797;28;20203;-77
2022/03/14 12:19:59;;;;;;;23.30;10.25;;;10.10;99.90;;;;;;5073969;28;20036;-77
2022/03/14 12:22:36;;;;;;;18.45;9.63;;;10.20;99.90;;;;;;5092323;28;20174;-80
2022/03/14 12:25:03;;;;;;;32.92;9.65;;;10.10;99.90;;;;;;5090911;28;20036;-80
2022/03/14 12:27:34;;;;;;;32.70;10.98;;;10.10;99.90;;;;;;5091013;28;20040;-80
2022/03/14 12:30:06;;;;;;;25.45;11.10;;;10.20;99.90;;;;;;5090383;28;20123;-78
2022/03/14 12:32:55;;;;;;;27.00;11.15;;;10.30;99.90;;;;;;5090477;28;20052;-79
2022/03/14 12:35:22;;;;;;;27.70;11.45;;;10.40;99.90;;;;;;5089875;28;20078;-79
2022/03/14 12:37:52;;;;;;;23.35;10.63;;;10.40;99.90;;;;;;5090806;28;20506;-76
2022/03/14 12:40:21;;;;;;;25.52;11.70;;;10.40;99.90;;;;;;5086062;28;20489;-77
2022/03/14 12:42:48;;;;;;;27.95;12.23;;;10.60;99.90;;;;;;5110586;28;20371;-81
2022/03/14 12:45:14;;;;;;;24.48;11.43;;;10.90;99.90;;;;;;5109686;28;20044;-80
2022/03/14 12:48:06;;;;;;;23.40;10.80;;;10.80;99.90;;;;;;5111543;28;20063;-78